Time;durP1;ratioP1;P1;durP2;ratioP2;P2;SDS_P1;SDS_P2;PMS_P1;PMS_P2;Temp;Humidity;BMP_temperature;BMP_pressure;BME280_temperature;BME280_humidity;BME280_pressure;Samples;Min_cycle;Max_cycle;Signal;HPM_P1;HPM_P2
2023/01/30 00:00:54;;;;;;;27.50;12.65;;;5.60;99.90;;;;;;5110282;28;20123;-82
2023/01/30 00:03:22;;;;;;;24.40;12.30;;;5.70;99.90;;;;;;5126349;28;20036;-82
2023/01/30 00:05:49;;;;;;;22.20;12.77;;;5.60;99.90;;;;;;5126531;28;20484;-82
2023/01/30 00:08:16;;;;;;;25.02;13.10;;;5.70;99.90;;;;;;5126653;28;20051;-82
2023/01/30 00:10:44;;;;;;;23.58;12.90;;;5.70;99.90;;;;;;5109384;28;20450;-82
2023/01/30 00:13:13;;;;;;;20.95;12.68;;;5.70;99.90;;;;;;5126488;28;20036;-83
2023/01/30 00:15:40;;;;;;;24.73;11.80;;;5.80;99.90;;;;;;5109372;28;20047;-83
2023/01/30 00:18:07;;;;;;;25.90;13.00;;;5.80;99.90;;;;;;5126219;28;20051;-82
2023/01/30 00:20:34;;;;;;;26.63;12.93;;;5.80;99.90;;;;;;5126319;28;20040;-83
2023/01/30 00:23:01;;;;;;;20.50;11.52;;;5.80;99.90;;;;;;5093234;28;20047;-83
2023/01/30 00:25:28;;;;;;;23.00;11.55;;;5.90;99.90;;;;;;5109093;28;20534;-82
2023/01/30 00:27:55;;;;;;;23.88;13.50;;;5.80;99.90;;;;;;5092873;28;20040;-82
2023/01/30 00:30:24;;;;;;;23.92;12.57;;;5.80;99.90;;;;;;5109545;28;20188;-82
2023/01/30 00:32:55;;;;;;;22.65;11.55;;;6.10;99.90;;;;;;5108744;28;20051;-83
2023/01/30 00:35:27;;;;;;;22.48;12.13;;;5.90;99.90;;;;;;5108907;28;20039;-82
2023/01/30 00:37:58;;;;;;;21.92;11.50;;;5.80;99.90;;;;;;5126173;28;20040;-83
2023/01/30 00:40:26;;;;;;;23.05;11.35;;;5.90;99.90;;;;;;5125735;28;20051;-82
2023/01/30 00:48:28;;;;;;;23.75;10.10;;;5.90;99.90;;;;;;5142364;28;20059;-82
2023/01/30 00:50:55;;;;;;;19.38;10.05;;;6.10;99.90;;;;;;5125803;28;20036;-82
2023/01/30 00:53:21;;;;;;;17.98;9.70;;;6.10;99.90;;;;;;5109192;28;20214;-83
2023/01/30 00:55:52;;;;;;;17.30;9.85;;;6.10;99.90;;;;;;5125254;28;20449;-83
2023/01/30 00:58:19;;;;;;;16.00;8.48;;;6.10;99.90;;;;;;5108865;28;20524;-83
2023/01/30 01:00:46;;;;;;;16.13;8.43;;;6.10;99.90;;;;;;5108857;28;20134;-83
2023/01/30 01:03:13;;;;;;;20.02;8.10;;;6.20;99.90;;;;;;5126090;28;20036;-82
2023/01/30 01:05:39;;;;;;;19.70;8.05;;;6.20;99.90;;;;;;5108704;28;20150;-83
2023/01/30 01:08:06;;;;;;;18.00;7.75;;;6.20;99.90;;;;;;5125746;28;20040;-83
2023/01/30 01:10:33;;;;;;;16.75;7.30;;;6.20;99.90;;;;;;5108268;28;20131;-83
2023/01/30 01:12:59;;;;;;;14.43;8.10;;;6.20;99.90;;;;;;5125916;28;20071;-83
2023/01/30 01:15:26;;;;;;;20.20;8.35;;;6.20;99.90;;;;;;5092494;28;20062;-83
2023/01/30 01:17:54;;;;;;;20.67;8.38;;;6.20;99.90;;;;;;5108732;28;20047;-83
2023/01/30 01:20:21;;;;;;;20.65;8.20;;;6.10;99.90;;;;;;5108894;28;20039;-83
2023/01/30 01:22:52;;;;;;;22.33;8.55;;;6.10;99.90;;;;;;5108480;28;20047;-83
2023/01/30 01:25:20;;;;;;;15.23;8.48;;;6.10;99.90;;;;;;5108843;28;20047;-83
2023/01/30 01:27:47;;;;;;;24.27;9.15;;;6.10;99.90;;;;;;5125701;28;20093;-83
2023/01/30 01:30:14;;;;;;;22.90;8.27;;;6.10;99.90;;;;;;5109098;28;20035;-83
2023/01/30 01:32:41;;;;;;;19.73;8.13;;;6.10;99.90;;;;;;5108391;28;20043;-82
2023/01/30 01:35:08;;;;;;;14.52;6.95;;;6.10;99.90;;;;;;5092353;28;20032;-83
2023/01/30 01:37:34;;;;;;;17.83;7.70;;;6.00;99.90;;;;;;5125309;28;20040;-83
2023/01/30 01:42:46;;;;;;;16.80;7.53;;;6.00;99.90;;;;;;5110876;28;20040;-82
2023/01/30 01:45:23;;;;;;;13.77;7.07;;;6.00;99.90;;;;;;5110604;28;20036;-83
2023/01/30 01:47:57;;;;;;;16.75;7.03;;;6.00;99.90;;;;;;5129204;28;20039;-83
2023/01/30 01:50:36;;;;;;;13.95;6.60;;;6.00;99.90;;;;;;5112285;28;20048;-83
2023/01/30 01:53:03;;;;;;;14.45;6.25;;;6.00;99.90;;;;;;5129187;28;20058;-83
2023/01/30 01:55:30;;;;;;;12.65;5.90;;;6.00;99.90;;;;;;5095874;28;20040;-83
2023/01/30 01:58:05;;;;;;;13.25;5.75;;;6.00;99.90;;;;;;5128797;28;20047;-83
2023/01/30 02:00:32;;;;;;;11.27;5.20;;;6.00;99.90;;;;;;5129082;28;20043;-83
2023/01/30 02:03:09;;;;;;;11.18;5.18;;;6.00;99.90;;;;;;5129063;28;20040;-83
2023/01/30 02:05:41;;;;;;;13.38;5.05;;;6.00;99.90;;;;;;5128908;28;20946;-82
2023/01/30 02:08:18;;;;;;;8.40;4.55;;;6.00;99.90;;;;;;5128833;28;20118;-83
2023/01/30 02:10:49;;;;;;;11.18;4.00;;;6.00;99.90;;;;;;5111626;28;20060;-83
2023/01/30 02:13:17;;;;;;;11.32;4.22;;;6.00;99.90;;;;;;5129073;28;20109;-83
2023/01/30 02:15:44;;;;;;;12.05;4.18;;;6.00;99.90;;;;;;5095116;28;20173;-83
2023/01/30 02:18:13;;;;;;;7.55;3.60;;;6.10;99.90;;;;;;5145717;28;20063;-83
2023/01/30 02:20:56;;;;;;;8.75;3.28;;;6.10;99.90;;;;;;5112041;28;20043;-83
2023/01/30 02:23:44;;;;;;;8.43;3.60;;;6.10;99.90;;;;;;5128649;28;20039;-83
2023/01/30 02:26:17;;;;;;;8.27;3.35;;;6.10;99.90;;;;;;5128933;28;20047;-83
2023/01/30 02:29:09;;;;;;;9.38;3.50;;;6.10;99.90;;;;;;5128453;28;20040;-83
2023/01/30 02:32:06;;;;;;;9.00;3.60;;;6.10;99.90;;;;;;5128679;28;20048;-83
2023/01/30 02:34:57;;;;;;;8.77;3.72;;;6.10;99.90;;;;;;5111831;28;20050;-83
2023/01/30 02:37:39;;;;;;;8.30;3.15;;;6.10;99.90;;;;;;5128712;28;20450;-83
2023/01/30 02:40:33;;;;;;;13.40;3.90;;;6.10;99.90;;;;;;5128637;28;20110;-83
2023/01/30 02:43:29;;;;;;;10.15;4.22;;;6.20;99.90;;;;;;5128072;28;20526;-83
2023/01/30 02:46:13;;;;;;;9.20;4.25;;;6.20;99.90;;;;;;5127894;28;20036;-83
2023/01/30 02:48:47;;;;;;;12.93;4.50;;;6.20;99.90;;;;;;5111383;28;20796;-83
2023/01/30 02:51:20;;;;;;;15.48;6.07;;;6.20;99.90;;;;;;5128210;28;20048;-83
2023/01/30 02:53:48;;;;;;;15.50;4.85;;;6.30;99.90;;;;;;5111018;28;20055;-82
2023/01/30 02:56:15;;;;;;;18.67;4.82;;;6.30;99.90;;;;;;5127026;28;20452;-83
2023/01/30 02:58:47;;;;;;;25.08;5.80;;;6.30;99.90;;;;;;5128083;28;20096;-83
2023/01/30 03:01:38;;;;;;;16.20;5.28;;;6.30;99.90;;;;;;5111088;28;20529;-83
2023/01/30 03:04:17;;;;;;;19.67;5.55;;;6.40;99.90;;;;;;5127749;28;20044;-83
2023/01/30 03:07:09;;;;;;;18.88;4.97;;;6.40;99.90;;;;;;5127695;28;20035;-82
2023/01/30 03:09:56;;;;;;;17.60;4.82;;;6.40;99.90;;;;;;5127906;28;20066;-83
2023/01/30 03:12:44;;;;;;;15.52;4.45;;;6.40;99.90;;;;;;5127884;28;20460;-83
2023/01/30 03:15:18;;;;;;;19.17;5.38;;;6.50;99.90;;;;;;5127756;28;20032;-83
2023/01/30 03:17:46;;;;;;;17.88;4.40;;;6.50;99.90;;;;;;5110741;28;20043;-81
2023/01/30 03:20:15;;;;;;;19.33;4.53;;;6.50;99.90;;;;;;5127701;28;20040;-83
2023/01/30 03:22:42;;;;;;;17.05;4.45;;;6.50;99.90;;;;;;5110692;28;20036;-83
2023/01/30 03:25:12;;;;;;;16.05;5.35;;;6.50;99.90;;;;;;5110423;28;20039;-83
2023/01/30 03:27:39;;;;;;;16.38;3.88;;;6.50;99.90;;;;;;5110133;28;20523;-82
2023/01/30 03:30:07;;;;;;;21.73;5.07;;;6.50;99.90;;;;;;5126782;28;20079;-83
2023/01/30 03:32:33;;;;;;;17.92;3.90;;;6.50;99.90;;;;;;5127184;28;20039;-83
2023/01/30 03:35:00;;;;;;;22.95;4.70;;;6.50;99.90;;;;;;5093591;28;20492;-82
2023/01/30 03:37:26;;;;;;;19.38;3.65;;;6.60;99.90;;;;;;5109989;28;20078;-83
2023/01/30 03:39:53;;;;;;;14.23;3.50;;;6.60;99.90;;;;;;5126924;28;20036;-83
2023/01/30 03:42:20;;;;;;;25.42;3.83;;;6.60;99.90;;;;;;5127454;28;20035;-83
2023/01/30 03:44:47;;;;;;;15.43;4.00;;;6.50;99.90;;;;;;5093856;28;20079;-82
2023/01/30 03:47:14;;;;;;;19.45;3.42;;;6.50;99.90;;;;;;5126742;28;20118;-83
2023/01/30 03:49:40;;;;;;;16.80;3.22;;;6.50;99.90;;;;;;5110082;28;20051;-83
2023/01/30 03:52:07;;;;;;;18.63;3.22;;;6.50;99.90;;;;;;5109878;28;20092;-82
2023/01/30 03:54:34;;;;;;;15.82;3.22;;;6.50;99.90;;;;;;5110158;28;20054;-83
2023/01/30 03:57:00;;;;;;;18.73;2.88;;;6.50;99.90;;;;;;5109700;28;20089;-83
2023/01/30 03:59:27;;;;;;;13.45;2.35;;;6.40;99.90;;;;;;5109917;28;20492;-82
2023/01/30 04:01:54;;;;;;;20.38;3.65;;;6.40;99.90;;;;;;5126252;28;20400;-83
2023/01/30 04:04:21;;;;;;;15.32;3.40;;;6.30;99.90;;;;;;5110023;28;20407;-83
2023/01/30 04:06:48;;;;;;;21.67;3.60;;;6.30;99.90;;;;;;5125030;28;20069;-82
2023/01/30 04:09:14;;;;;;;15.70;3.05;;;6.30;99.90;;;;;;5118897;28;20084;-83
2023/01/30 04:11:41;;;;;;;16.50;2.88;;;6.20;99.90;;;;;;5109988;28;20048;-83
2023/01/30 04:14:08;;;;;;;16.58;3.22;;;6.10;99.90;;;;;;5126366;28;20478;-83
2023/01/30 04:16:35;;;;;;;12.77;2.70;;;6.10;99.90;;;;;;5109773;28;20484;-83
2023/01/30 04:19:01;;;;;;;24.70;3.95;;;6.00;99.90;;;;;;5103027;28;20044;-83
2023/01/30 04:21:28;;;;;;;22.25;3.42;;;6.00;99.90;;;;;;5095618;28;20035;-82
2023/01/30 04:23:55;;;;;;;23.88;3.60;;;6.00;99.90;;;;;;5106008;28;20067;-81
2023/01/30 04:26:21;;;;;;;19.83;3.00;;;6.00;99.90;;;;;;5089682;28;20036;-82
2023/01/30 04:28:48;;;;;;;19.30;3.13;;;5.90;99.90;;;;;;5089673;28;20094;-82
2023/01/30 04:31:15;;;;;;;18.95;4.20;;;5.90;99.90;;;;;;5109228;28;20039;-82
2023/01/30 04:33:42;;;;;;;13.43;2.10;;;5.80;99.90;;;;;;5109491;28;20036;-82
2023/01/30 04:36:09;;;;;;;15.98;3.10;;;5.80;99.90;;;;;;5126086;28;20039;-83
2023/01/30 04:38:36;;;;;;;21.83;4.05;;;5.80;99.90;;;;;;5126070;28;20052;-83
2023/01/30 04:41:03;;;;;;;25.25;3.65;;;5.70;99.90;;;;;;5125902;28;20036;-83
2023/01/30 04:43:31;;;;;;;19.90;3.15;;;5.60;99.90;;;;;;5108807;28;20032;-83
2023/01/30 04:45:58;;;;;;;17.55;2.80;;;5.60;99.90;;;;;;5125907;28;20123;-83
2023/01/30 04:48:25;;;;;;;24.80;3.55;;;5.50;99.90;;;;;;5125974;28;20178;-83
2023/01/30 04:50:53;;;;;;;18.70;3.40;;;5.50;99.90;;;;;;5109165;28;20126;-82
2023/01/30 04:53:21;;;;;;;17.70;2.35;;;5.50;99.90;;;;;;5125807;28;20044;-83
2023/01/30 04:55:48;;;;;;;22.50;3.35;;;5.50;99.90;;;;;;5109130;28;20403;-83
2023/01/30 04:58:15;;;;;;;17.67;3.28;;;5.50;99.90;;;;;;5109016;28;20036;-83
2023/01/30 05:00:42;;;;;;;19.17;3.67;;;5.50;99.90;;;;;;5108889;28;20035;-82
2023/01/30 05:03:09;;;;;;;21.70;2.80;;;5.50;99.90;;;;;;5092143;28;20400;-82
2023/01/30 05:05:36;;;;;;;18.08;2.78;;;5.70;99.90;;;;;;5109025;28;20412;-82
2023/01/30 05:08:03;;;;;;;21.48;3.72;;;5.40;99.90;;;;;;5142482;28;20511;-83
2023/01/30 05:10:30;;;;;;;12.25;2.65;;;5.40;99.90;;;;;;5127593;28;20059;-83
2023/01/30 05:13:01;;;;;;;19.77;3.25;;;5.40;99.90;;;;;;5126006;28;20139;-83
2023/01/30 05:15:27;;;;;;;17.27;2.80;;;5.40;99.90;;;;;;5125894;28;20044;-82
2023/01/30 05:17:54;;;;;;;15.25;2.97;;;5.40;99.90;;;;;;5108994;28;20385;-82
2023/01/30 05:20:21;;;;;;;18.50;3.38;;;5.40;99.90;;;;;;5127587;28;20123;-83
2023/01/30 05:22:47;;;;;;;25.48;3.22;;;5.50;99.90;;;;;;5129633;28;20032;-82
2023/01/30 05:25:14;;;;;;;23.92;3.25;;;5.40;99.90;;;;;;5112528;28;20093;-82
2023/01/30 05:27:41;;;;;;;23.95;3.40;;;5.40;99.90;;;;;;5113091;28;20079;-83
2023/01/30 05:30:08;;;;;;;18.70;3.05;;;5.40;99.90;;;;;;5096216;28;20130;-82
2023/01/30 05:32:35;;;;;;;18.50;3.70;;;5.30;99.90;;;;;;5112783;28;20073;-83
2023/01/30 05:35:01;;;;;;;24.17;3.35;;;5.30;99.90;;;;;;5129700;28;20435;-82
2023/01/30 05:37:31;;;;;;;19.23;3.03;;;5.60;99.90;;;;;;5129349;28;20496;-83
2023/01/30 05:39:58;;;;;;;21.55;3.92;;;5.30;99.90;;;;;;5096179;28;20036;-83
2023/01/30 05:42:24;;;;;;;25.52;3.38;;;5.40;99.90;;;;;;5129421;28;20062;-83
2023/01/30 05:44:51;;;;;;;25.67;3.42;;;5.40;99.90;;;;;;5129510;28;20036;-83
2023/01/30 05:47:18;;;;;;;22.00;3.13;;;5.50;99.90;;;;;;5112267;28;20124;-83
2023/01/30 05:49:44;;;;;;;25.33;3.67;;;5.40;99.90;;;;;;5129440;28;20055;-83
2023/01/30 05:52:11;;;;;;;27.02;3.83;;;5.40;99.90;;;;;;5112254;28;20036;-83
2023/01/30 05:54:38;;;;;;;25.65;3.30;;;5.40;99.90;;;;;;5095884;28;20451;-82
2023/01/30 05:57:04;;;;;;;23.42;2.80;;;5.40;99.90;;;;;;5112554;28;20044;-82
2023/01/30 05:59:31;;;;;;;17.75;2.63;;;5.40;99.90;;;;;;5095440;28;20857;-82
2023/01/30 06:01:58;;;;;;;24.17;3.25;;;5.40;99.90;;;;;;5129574;28;20040;-82
2023/01/30 06:04:24;;;;;;;24.10;3.28;;;5.40;99.90;;;;;;5128407;28;20040;-83
2023/01/30 06:06:51;;;;;;;30.27;3.55;;;5.50;99.90;;;;;;5112443;28;20768;-83
2023/01/30 06:09:21;;;;;;;24.65;3.60;;;5.30;99.90;;;;;;5095617;28;20084;-83
2023/01/30 06:11:47;;;;;;;19.98;3.42;;;5.30;99.90;;;;;;5094987;28;20055;-83
2023/01/30 06:14:14;;;;;;;19.85;2.85;;;5.30;99.90;;;;;;5111718;28;20127;-81
2023/01/30 06:16:41;;;;;;;22.35;3.00;;;5.40;99.90;;;;;;5095593;28;20036;-83
2023/01/30 06:19:08;;;;;;;23.85;3.72;;;5.40;99.90;;;;;;5111838;28;20047;-82
2023/01/30 06:21:34;;;;;;;15.13;3.20;;;5.40;99.90;;;;;;5111695;28;20093;-83
2023/01/30 06:24:02;;;;;;;20.27;3.53;;;5.40;99.90;;;;;;5129319;28;20040;-83
2023/01/30 06:26:29;;;;;;;29.65;3.45;;;5.40;99.90;;;;;;5128693;28;20040;-83
2023/01/30 06:28:55;;;;;;;18.58;3.40;;;5.40;99.90;;;;;;5111663;28;20043;-83
2023/01/30 06:31:22;;;;;;;23.73;3.58;;;5.40;99.90;;;;;;5109979;28;20147;-83
2023/01/30 06:33:49;;;;;;;26.65;3.55;;;5.40;99.90;;;;;;5111773;28;20036;-83
2023/01/30 06:36:15;;;;;;;25.25;3.88;;;5.40;99.90;;;;;;5128590;28;20052;-83
2023/01/30 06:38:42;;;;;;;21.65;3.42;;;5.30;99.90;;;;;;5111407;28;20124;-83
2023/01/30 06:41:09;;;;;;;23.63;3.20;;;5.30;99.90;;;;;;5111491;28;20119;-83
2023/01/30 06:43:36;;;;;;;12.20;2.92;;;5.30;99.90;;;;;;5111161;28;20032;-83
2023/01/30 06:46:02;;;;;;;22.25;2.72;;;5.30;99.90;;;;;;5111280;28;20040;-83
2023/01/30 06:48:29;;;;;;;18.58;3.10;;;5.30;99.90;;;;;;5111080;28;20036;-83
2023/01/30 06:50:56;;;;;;;20.27;2.97;;;5.20;99.90;;;;;;5111236;28;20059;-83
2023/01/30 06:53:28;;;;;;;17.67;2.83;;;5.20;99.90;;;;;;5111245;28;20047;-82
2023/01/30 06:56:00;;;;;;;22.63;2.88;;;5.30;99.90;;;;;;5128131;28;20047;-83
2023/01/30 06:58:26;;;;;;;15.27;2.05;;;5.20;99.90;;;;;;5110698;28;20050;-83
2023/01/30 07:00:53;;;;;;;13.35;2.42;;;5.30;99.90;;;;;;5107766;28;20031;-82
2023/01/30 07:03:20;;;;;;;15.65;2.72;;;5.30;99.90;;;;;;5088075;28;20442;-83
2023/01/30 07:05:47;;;;;;;15.43;3.00;;;5.30;99.90;;;;;;5119473;28;20048;-81
2023/01/30 07:08:15;;;;;;;17.80;2.85;;;5.30;99.90;;;;;;5107429;28;20044;-81
2023/01/30 07:10:43;;;;;;;9.18;2.50;;;5.40;99.90;;;;;;5090315;28;20500;-83
2023/01/30 07:13:10;;;;;;;14.60;2.80;;;5.40;99.90;;;;;;5095919;28;20075;-83
2023/01/30 07:15:37;;;;;;;14.32;2.85;;;5.40;99.90;;;;;;5112359;28;20083;-82
2023/01/30 07:18:04;;;;;;;13.55;2.20;;;5.40;99.90;;;;;;5110838;28;20063;-83
2023/01/30 07:20:31;;;;;;;12.43;2.78;;;5.40;99.90;;;;;;5119115;28;20036;-82
2023/01/30 07:22:57;;;;;;;13.75;2.25;;;5.50;99.90;;;;;;5109455;28;20036;-83
2023/01/30 07:25:26;;;;;;;14.30;2.70;;;5.50;99.90;;;;;;5117695;28;20036;-83
2023/01/30 07:28:02;;;;;;;11.98;1.77;;;5.50;99.90;;;;;;5092902;28;20101;-83
2023/01/30 07:30:31;;;;;;;13.32;1.70;;;5.50;99.90;;;;;;5104108;28;20048;-83
2023/01/30 07:32:59;;;;;;;8.30;1.52;;;5.50;99.90;;;;;;5123789;28;20508;-83
2023/01/30 07:35:29;;;;;;;14.45;2.13;;;5.60;99.90;;;;;;5101685;28;20908;-83
2023/01/30 07:37:56;;;;;;;7.22;1.88;;;5.60;99.90;;;;;;5118781;28;20055;-82
2023/01/30 07:40:23;;;;;;;15.77;2.28;;;5.60;99.90;;;;;;5101634;28;20036;-84
2023/01/30 07:42:59;;;;;;;14.90;1.90;;;5.60;99.90;;;;;;5101611;28;20036;-84
2023/01/30 07:45:38;;;;;;;14.35;1.85;;;5.60;99.90;;;;;;5121100;28;20093;-83
2023/01/30 07:48:05;;;;;;;5.80;1.92;;;5.70;99.90;;;;;;5095718;28;20040;-83
2023/01/30 07:50:32;;;;;;;12.32;1.67;;;5.70;99.90;;;;;;5106820;28;20122;-84
2023/01/30 07:53:01;;;;;;;11.88;1.50;;;5.70;99.90;;;;;;5084512;28;20544;-84
2023/01/30 07:55:28;;;;;;;10.68;1.77;;;5.70;99.90;;;;;;5091156;28;20118;-84
2023/01/30 07:57:54;;;;;;;13.75;2.35;;;5.70;99.90;;;;;;5118071;28;20194;-83
2023/01/30 08:00:21;;;;;;;9.00;2.22;;;5.70;99.90;;;;;;5092994;28;20043;-82
2023/01/30 08:02:48;;;;;;;8.80;1.52;;;5.70;99.90;;;;;;5124957;28;20480;-84
2023/01/30 08:05:15;;;;;;;9.45;1.70;;;5.80;99.90;;;;;;5093153;28;20036;-78
2023/01/30 08:07:42;;;;;;;15.73;2.00;;;5.70;99.90;;;;;;5125392;28;20104;-80
2023/01/30 08:10:09;;;;;;;12.38;2.08;;;5.80;99.90;;;;;;5097730;28;20048;-80
2023/01/30 08:12:36;;;;;;;11.57;1.52;;;5.80;99.90;;;;;;5111183;28;20122;-80
2023/01/30 08:15:03;;;;;;;14.32;2.25;;;5.80;99.90;;;;;;5094904;28;20126;-80
2023/01/30 08:17:30;;;;;;;14.82;2.15;;;5.90;99.90;;;;;;5124569;28;20403;-80
2023/01/30 08:19:57;;;;;;;22.60;2.35;;;5.90;99.90;;;;;;5123936;28;20037;-82
2023/01/30 08:22:28;;;;;;;11.55;2.30;;;5.90;99.90;;;;;;5103242;28;20041;-82
2023/01/30 08:24:54;;;;;;;9.18;1.92;;;5.90;99.90;;;;;;5108482;28;20059;-83
2023/01/30 08:27:21;;;;;;;6.50;1.50;;;5.90;99.90;;;;;;5120778;28;20040;-82
2023/01/30 08:29:48;;;;;;;10.85;1.95;;;5.90;99.90;;;;;;5122882;28;20119;-82
2023/01/30 08:32:14;;;;;;;8.70;2.08;;;5.90;99.90;;;;;;5088549;28;20040;-83
2023/01/30 08:34:41;;;;;;;8.60;1.38;;;6.00;99.90;;;;;;5102167;28;20865;-83
2023/01/30 08:37:08;;;;;;;9.00;1.77;;;6.00;99.90;;;;;;5102822;28;20503;-83
2023/01/30 08:39:34;;;;;;;17.40;2.33;;;6.00;99.90;;;;;;5105723;28;20455;-83
2023/01/30 08:42:01;;;;;;;8.60;1.55;;;6.00;99.90;;;;;;5115899;28;20032;-83
2023/01/30 08:44:28;;;;;;;7.90;1.55;;;6.00;99.90;;;;;;5091979;28;20467;-80
2023/01/30 08:46:54;;;;;;;10.73;1.50;;;6.00;99.90;;;;;;5079859;28;20698;-82
2023/01/30 08:49:21;;;;;;;5.53;1.25;;;6.00;99.90;;;;;;5116328;28;20031;-82
2023/01/30 08:51:48;;;;;;;10.02;1.98;;;6.10;99.90;;;;;;5105693;28;20036;-83
2023/01/30 08:54:14;;;;;;;12.13;1.85;;;6.10;99.90;;;;;;5088204;28;20103;-82
2023/01/30 08:56:41;;;;;;;15.20;1.88;;;6.20;99.90;;;;;;5088017;28;20048;-83
2023/01/30 08:59:08;;;;;;;10.63;1.75;;;6.10;99.90;;;;;;5088413;28;20044;-81
2023/01/30 09:01:36;;;;;;;12.93;1.95;;;6.10;99.90;;;;;;5105772;28;20094;-82
2023/01/30 09:04:03;;;;;;;8.80;2.15;;;6.10;99.90;;;;;;5125430;28;20047;-83
2023/01/30 09:06:30;;;;;;;4.07;1.42;;;6.10;99.90;;;;;;5124907;28;20497;-82
2023/01/30 09:08:58;;;;;;;16.67;1.88;;;6.10;99.90;;;;;;5124708;28;20130;-82
2023/01/30 09:11:25;;;;;;;7.90;1.90;;;6.20;99.90;;;;;;5100340;28;20056;-82
2023/01/30 09:13:52;;;;;;;12.55;1.55;;;6.20;99.90;;;;;;5108303;28;20051;-82
2023/01/30 09:16:18;;;;;;;11.13;1.95;;;6.30;99.90;;;;;;5108135;28;20044;-82
2023/01/30 09:18:45;;;;;;;20.70;2.10;;;6.30;99.90;;;;;;5108263;28;20047;-82
2023/01/30 09:21:12;;;;;;;7.80;1.67;;;6.30;99.90;;;;;;5091972;28;20078;-83
2023/01/30 09:23:39;;;;;;;11.15;2.28;;;6.40;99.90;;;;;;5141859;28;20130;-84
2023/01/30 09:26:06;;;;;;;13.30;1.80;;;6.40;99.90;;;;;;5124920;28;20407;-83
2023/01/30 09:28:33;;;;;;;15.63;2.03;;;6.40;99.90;;;;;;5072443;28;20040;-83
2023/01/30 09:31:01;;;;;;;15.45;3.10;;;6.40;99.90;;;;;;5088525;28;20040;-82
2023/01/30 09:33:27;;;;;;;5.93;1.30;;;6.40;99.90;;;;;;5108508;28;20044;-82
2023/01/30 09:35:55;;;;;;;6.18;1.52;;;6.40;99.90;;;;;;5124577;28;20040;-82
2023/01/30 09:38:22;;;;;;;6.97;1.42;;;6.30;99.90;;;;;;5106181;28;20054;-82
2023/01/30 09:40:58;;;;;;;11.88;1.48;;;6.30;99.90;;;;;;5097540;28;20399;-82
2023/01/30 09:43:49;;;;;;;16.23;1.75;;;6.30;99.90;;;;;;5123472;28;20035;-82
2023/01/30 09:46:55;;;;;;;13.35;2.17;;;6.30;99.90;;;;;;5125013;28;20040;-82
2023/01/30 09:49:51;;;;;;;7.37;1.53;;;6.30;99.90;;;;;;5142119;28;20040;-82
2023/01/30 09:52:46;;;;;;;6.32;1.48;;;6.20;99.90;;;;;;5108294;28;20044;-83
2023/01/30 09:55:32;;;;;;;17.52;2.17;;;6.10;99.90;;;;;;5124957;28;20560;-83
2023/01/30 09:57:59;;;;;;;11.63;2.08;;;6.20;99.90;;;;;;5124671;28;20094;-83
2023/01/30 10:00:43;;;;;;;9.65;2.22;;;6.30;99.90;;;;;;5091585;28;20048;-82
2023/01/30 10:03:20;;;;;;;12.13;2.03;;;6.10;99.90;;;;;;5107872;28;20153;-82
2023/01/30 10:05:46;;;;;;;;;;;6.10;99.90;;;;;;5125466;28;20052;-81
2023/01/30 10:08:28;;;;;;;18.30;2.20;;;6.20;99.90;;;;;;5111679;28;19923;-82
2023/01/30 10:11:11;;;;;;;20.40;2.15;;;6.20;99.90;;;;;;5128132;28;20075;-82
2023/01/30 10:13:53;;;;;;;11.80;2.03;;;6.30;99.90;;;;;;5127814;28;20079;-82
2023/01/30 10:16:41;;;;;;;22.83;2.05;;;6.40;99.90;;;;;;5128598;28;20028;-82
2023/01/30 10:19:46;;;;;;;8.98;1.73;;;6.50;99.90;;;;;;5127909;28;20150;-81
2023/01/30 10:22:36;;;;;;;15.32;1.80;;;6.60;99.90;;;;;;5089867;28;20036;-82
2023/01/30 10:25:31;;;;;;;12.40;2.30;;;6.80;99.90;;;;;;5100845;28;20074;-82
2023/01/30 10:28:08;;;;;;;10.43;1.52;;;6.90;99.90;;;;;;5104471;28;20131;-82
2023/01/30 10:30:37;;;;;;;7.65;1.75;;;7.00;99.90;;;;;;5097319;28;20043;-84
2023/01/30 10:33:20;;;;;;;12.52;2.05;;;7.00;99.90;;;;;;5086234;28;20075;-84
2023/01/30 10:36:12;;;;;;;17.52;2.47;;;7.00;99.90;;;;;;5114854;28;20044;-83
2023/01/30 10:38:45;;;;;;;13.68;1.55;;;7.10;99.90;;;;;;5127607;28;20040;-83
2023/01/30 10:41:33;;;;;;;17.55;2.45;;;7.20;99.90;;;;;;5127821;28;20127;-82
2023/01/30 10:44:09;;;;;;;5.45;1.65;;;7.00;99.90;;;;;;5096614;28;20500;-85
2023/01/30 10:46:42;;;;;;;8.40;1.23;;;6.50;99.90;;;;;;5097813;28;20400;-83
2023/01/30 10:49:21;;;;;;;5.68;0.82;;;6.20;99.90;;;;;;5127438;28;20055;-83
2023/01/30 10:51:59;;;;;;;3.92;1.00;;;6.00;99.90;;;;;;5127635;28;20040;-84
2023/01/30 10:54:41;;;;;;;5.60;1.00;;;5.90;99.90;;;;;;5127682;28;20058;-84
2023/01/30 10:57:38;;;;;;;9.35;1.17;;;6.00;99.90;;;;;;5123190;28;20041;-84
2023/01/30 11:00:29;;;;;;;6.45;0.90;;;5.90;99.90;;;;;;5096209;28;20032;-83
2023/01/30 11:03:26;;;;;;;4.00;0.85;;;5.90;99.90;;;;;;5117229;28;20058;-82
2023/01/30 11:05:55;;;;;;;1.95;0.75;;;6.00;99.90;;;;;;5118581;28;20707;-83
2023/01/30 11:08:30;;;;;;;6.93;0.98;;;6.00;99.90;;;;;;5125190;28;20047;-84
2023/01/30 11:10:57;;;;;;;1.70;0.52;;;6.00;99.90;;;;;;5110430;28;20040;-83
2023/01/30 11:13:32;;;;;;;4.38;0.70;;;6.00;99.90;;;;;;5098650;28;20504;-89
2023/01/30 11:16:04;;;;;;;7.50;0.93;;;6.10;99.90;;;;;;5125633;28;20054;-85
2023/01/30 11:18:32;;;;;;;3.55;0.73;;;6.20;99.90;;;;;;5116820;28;20032;-84
2023/01/30 11:21:09;;;;;;;2.35;0.70;;;6.20;99.90;;;;;;5112350;28;20032;-85
2023/01/30 11:23:40;;;;;;;6.85;0.85;;;6.30;99.90;;;;;;5099755;28;20047;-84
2023/01/30 11:26:15;;;;;;;5.68;1.05;;;6.30;99.90;;;;;;5114523;28;20398;-84
2023/01/30 11:28:44;;;;;;;6.07;1.55;;;6.40;99.90;;;;;;5124797;28;20040;-84
2023/01/30 11:31:29;;;;;;;7.70;1.33;;;6.50;99.90;;;;;;5125237;28;20086;-84
2023/01/30 11:34:14;;;;;;;3.83;1.58;;;6.50;99.90;;;;;;5108834;28;20500;-85
2023/01/30 11:36:41;;;;;;;9.75;1.40;;;6.70;99.90;;;;;;5119174;28;20520;-85
2023/01/30 11:39:11;;;;;;;6.07;1.52;;;6.70;99.90;;;;;;5123645;28;20412;-84
2023/01/30 11:41:54;;;;;;;10.15;1.30;;;6.80;99.90;;;;;;5112942;28;20043;-85
2023/01/30 11:44:39;;;;;;;8.07;1.08;;;6.80;99.90;;;;;;5116420;28;20493;-84
2023/01/30 11:47:21;;;;;;;6.28;1.50;;;6.80;99.90;;;;;;5090893;28;20460;-83
2023/01/30 11:49:53;;;;;;;7.55;1.13;;;6.80;99.90;;;;;;5109137;28;20075;-83
2023/01/30 11:52:28;;;;;;;5.18;1.08;;;6.80;99.90;;;;;;5099831;28;20620;-85
2023/01/30 11:55:00;;;;;;;14.20;1.80;;;7.40;99.90;;;;;;5111386;28;20037;-85
2023/01/30 11:57:26;;;;;;;10.60;1.40;;;6.80;99.90;;;;;;5107955;28;20047;-83
2023/01/30 11:59:57;;;;;;;10.57;1.90;;;6.90;99.90;;;;;;5126407;28;20032;-83
2023/01/30 12:02:37;;;;;;;12.48;1.65;;;6.80;99.90;;;;;;5112698;28;20124;-84
2023/01/30 12:05:15;;;;;;;7.57;1.35;;;6.80;99.90;;;;;;5110540;28;20035;-83
2023/01/30 12:07:45;;;;;;;12.57;1.40;;;6.80;99.90;;;;;;5132407;28;20039;-83
2023/01/30 12:10:30;;;;;;;7.25;1.58;;;6.70;99.90;;;;;;5114943;28;20432;-83
2023/01/30 12:13:08;;;;;;;11.60;1.90;;;6.70;99.90;;;;;;5102249;28;20059;-82
2023/01/30 12:15:37;;;;;;;6.53;1.38;;;6.70;99.90;;;;;;5116455;28;20048;-82
2023/01/30 12:18:17;;;;;;;7.75;1.10;;;6.70;99.90;;;;;;5117962;28;20081;-83
2023/01/30 12:21:01;;;;;;;11.18;1.67;;;6.70;99.90;;;;;;5100931;28;20035;-83
2023/01/30 12:23:49;;;;;;;15.23;1.95;;;6.80;99.90;;;;;;5098672;28;20115;-83
2023/01/30 12:26:26;;;;;;;11.70;1.55;;;6.80;99.90;;;;;;5110764;28;20048;-83
2023/01/30 12:29:02;;;;;;;12.23;1.33;;;6.80;99.90;;;;;;5121836;28;20043;-83
2023/01/30 12:31:40;;;;;;;10.52;1.83;;;6.80;99.90;;;;;;5117182;28;20043;-83
2023/01/30 12:34:08;;;;;;;7.90;1.60;;;6.90;99.90;;;;;;5125208;28;20055;-83
2023/01/30 12:37:13;;;;;;;9.07;1.58;;;6.90;99.90;;;;;;5125304;28;20127;-83
2023/01/30 12:39:58;;;;;;;15.85;2.47;;;6.90;99.90;;;;;;5114987;28;20052;-84
2023/01/30 12:42:46;;;;;;;10.32;1.50;;;6.90;99.90;;;;;;5125344;28;20128;-82
2023/01/30 12:45:26;;;;;;;14.18;2.03;;;7.00;99.90;;;;;;5125141;28;20032;-83
2023/01/30 12:48:20;;;;;;;17.50;1.58;;;7.00;99.90;;;;;;5108439;28;20130;-83
2023/01/30 12:51:08;;;;;;;8.77;1.65;;;7.00;99.90;;;;;;5108916;28;20047;-83
2023/01/30 12:53:59;;;;;;;16.98;2.30;;;7.00;99.90;;;;;;5115281;28;20447;-83
2023/01/30 12:56:43;;;;;;;6.70;1.67;;;6.90;99.90;;;;;;5139745;28;20149;-83
2023/01/30 12:59:51;;;;;;;18.30;2.42;;;6.80;99.90;;;;;;5107710;28;20039;-83
2023/01/30 13:02:41;;;;;;;6.88;1.60;;;6.90;99.90;;;;;;5113317;28;20081;-83
2023/01/30 13:05:34;;;;;;;13.68;1.70;;;7.00;99.90;;;;;;5096299;28;20500;-83
2023/01/30 13:08:25;;;;;;;14.52;1.58;;;7.00;99.90;;;;;;5119072;28;20047;-83
2023/01/30 13:11:13;;;;;;;7.65;1.75;;;7.10;99.90;;;;;;5108180;28;20040;-83
2023/01/30 13:13:49;;;;;;;12.65;1.95;;;7.20;99.90;;;;;;5103721;28;20106;-84
2023/01/30 13:16:28;;;;;;;14.52;2.20;;;7.20;99.90;;;;;;5116691;28;20127;-82
2023/01/30 13:19:17;;;;;;;10.00;1.52;;;7.20;99.90;;;;;;5116328;28;20048;-83
2023/01/30 13:22:21;;;;;;;15.32;2.15;;;7.20;99.90;;;;;;5095835;28;20119;-83